Seattle, WA (98108)

5:36 PM PST on February 11, 2016 (GMT -0800)
Boeing Field-King County International | | Change Station
CLOSE
Current Station
Airport
Location: Seattle Boeing,
Elevation: 16 ft
Nearby Weather Stations

Elev 16 ft 47.53 °N, 122.30 °W | Updated 43 minutes ago

Light Rain
Light Rain
54 °F
Feels Like 54 °F
N
4
Wind Variable Wind from NW

Today
High -- | Low -- °F
--% Chance of Precip.
Yesterday
High -- | Low -- °F
Precip. -- in
Pressure 30.11 in
Visibility 10.0 miles
Clouds Overcast 5000 ft
Dew Point 48 °F
Humidity 80%
Rainfall 0.02 in
Snow Depth Not available.
7:21 AM 5:25 PM
Waxing Crescent, 16% visible
METAR KBFI 120053Z 32003KT 10SM -RA OVC050 12/09 A3011 RMK AO2 SLP194 P0001 T01220089
Pressure 30.11 in
Visibility 10.0 miles
Clouds Overcast 5000 ft
Dew Point 48 °F
Humidity 80%
Rainfall 0.02 in
Snow Depth Not available.
7:21 AM 5:25 PM
Waxing Crescent, 16% visible
METAR KBFI 120053Z 32003KT 10SM -RA OVC050 12/09 A3011 RMK AO2 SLP194 P0001 T01220089

10-Day Weather Forecast

Almanac

Astronomy

Feb. 11, 2016 Rise Set
Actual Time
Civil Twilight
Nautical Twilight
Astronomical Twilight
Moon
Length of Visible Light
Length of Day
Tomorrow will be .
, % of the Moon is Illuminated

Today's Extremes

State Highs State Lows

Community

WunderPhotos

Upload Photos

1,892,207 photos uploaded!

WunderBlog® & News

Nearby

Air Quality

  Air Quality AQ Index Pollutant
Not available.

Snow Depth

Station Depth Elevation

Earthquake Activity

City Distance Mag. Time & Date
Minimum magnitude displayed is 2.5.

Coastal Water Temperatures

Place Temperature

Stations

Nearby Weather Stations

Station Location Temp. Windchill Dew Point Humidity Wind Precip. Elev Updated Type
                   

Watches & Warnings

There are currently no watches in effect.